createdAt,value
2022-12-19T00:02:03.695Z,2.30
2022-12-19T00:07:06.457Z,2.31
2022-12-19T00:12:17.415Z,2.37
2022-12-19T00:17:23.856Z,2.28
2022-12-19T00:22:26.700Z,2.31
2022-12-19T00:27:29.303Z,2.37
2022-12-19T00:32:33.660Z,2.57
2022-12-19T00:37:36.294Z,2.54
2022-12-19T00:42:40.964Z,2.56
2022-12-19T00:47:45.867Z,2.52
2022-12-19T00:52:48.807Z,2.30
2022-12-19T00:57:51.557Z,2.52
2022-12-19T01:02:58.722Z,2.53
2022-12-19T01:08:01.389Z,2.64
2022-12-19T01:13:06.274Z,2.72
2022-12-19T01:18:12.023Z,2.53
2022-12-19T01:23:15.777Z,2.78
2022-12-19T01:28:20.113Z,2.66
2022-12-19T01:33:26.323Z,2.62
2022-12-19T01:38:29.675Z,2.72
2022-12-19T01:43:34.918Z,2.79
2022-12-19T01:48:43.778Z,2.76
2022-12-19T01:53:50.938Z,2.78
2022-12-19T01:59:06.087Z,3.02
2022-12-19T02:04:14.415Z,3.07
2022-12-19T02:09:17.575Z,3.13
2022-12-19T02:14:20.895Z,2.97
2022-12-19T02:19:53.693Z,3.27
2022-12-19T02:25:22.047Z,3.24
2022-12-19T02:30:54.024Z,3.27
2022-12-19T02:36:02.828Z,3.34
2022-12-19T02:41:09.617Z,2.67
2022-12-19T02:46:14.654Z,3.33
2022-12-19T02:51:18.533Z,3.42
2022-12-19T02:56:40.958Z,3.44
2022-12-19T03:01:48.727Z,3.49
2022-12-19T03:06:56.323Z,3.47
2022-12-19T03:12:07.546Z,3.52
2022-12-19T03:17:12.175Z,3.56
2022-12-19T03:22:15.035Z,3.49
2022-12-19T03:27:23.682Z,3.33
2022-12-19T03:32:30.430Z,3.61
2022-12-19T03:37:38.178Z,3.54
2022-12-19T03:42:59.762Z,3.72
2022-12-19T03:48:08.648Z,3.74
2022-12-19T03:53:22.668Z,3.71
2022-12-19T03:58:31.472Z,3.66
2022-12-19T04:03:37.072Z,3.63
2022-12-19T04:08:39.984Z,3.54
2022-12-19T04:13:48.538Z,3.65
2022-12-19T04:18:59.059Z,3.67
2022-12-19T04:24:06.815Z,3.74
2022-12-19T04:29:12.540Z,3.74
2022-12-19T04:34:20.626Z,3.76
2022-12-19T04:39:23.842Z,3.69
2022-12-19T04:44:27.413Z,3.61
2022-12-19T04:49:31.730Z,3.76
2022-12-19T04:54:34.526Z,3.64
2022-12-19T04:59:37.645Z,3.48
2022-12-19T05:04:41.613Z,3.79
2022-12-19T05:09:44.187Z,3.76
2022-12-19T05:14:47.342Z,3.86
2022-12-19T05:19:51.224Z,3.89
2022-12-19T05:24:53.825Z,3.76
2022-12-19T05:29:57.070Z,3.82
2022-12-19T05:35:01.202Z,3.88
2022-12-19T05:40:03.820Z,3.90
2022-12-19T05:45:07.240Z,3.86
2022-12-19T05:50:11.511Z,3.87
2022-12-19T05:55:14.504Z,3.98
2022-12-19T06:00:17.429Z,4.15
2022-12-19T06:05:21.339Z,4.22
2022-12-19T06:10:24.111Z,4.23
2022-12-19T06:15:27.291Z,4.33
2022-12-19T06:20:31.211Z,4.34
2022-12-19T06:25:34.984Z,4.41
2022-12-19T06:30:37.744Z,5.71
2022-12-19T06:35:42.314Z,5.89
2022-12-19T06:41:03.607Z,5.32
2022-12-19T06:46:07.427Z,5.10
2022-12-19T06:51:11.832Z,4.74
2022-12-19T06:56:16.348Z,4.68
2022-12-19T07:01:19.679Z,4.42
2022-12-19T07:06:24.491Z,4.71
2022-12-19T07:11:27.072Z,4.68
2022-12-19T07:16:29.869Z,4.79
2022-12-19T07:21:34.113Z,4.79
2022-12-19T07:26:36.846Z,4.75
2022-12-19T07:31:40.573Z,4.77
2022-12-19T07:36:44.521Z,4.86
2022-12-19T07:41:47.344Z,4.90
2022-12-19T07:46:50.005Z,4.90
2022-12-19T07:51:53.941Z,4.94
2022-12-19T07:56:56.502Z,4.99
2022-12-19T08:01:59.143Z,5.03
2022-12-19T08:07:03.338Z,5.11
2022-12-19T08:12:06.378Z,5.16
2022-12-19T08:17:20.428Z,5.17
2022-12-19T08:22:24.878Z,5.15
2022-12-19T08:27:28.183Z,5.27
2022-12-19T08:32:30.885Z,5.27
2022-12-19T08:37:34.780Z,5.17
2022-12-19T08:42:38.148Z,5.35
2022-12-19T08:47:40.711Z,5.47
2022-12-19T08:52:44.615Z,5.52
2022-12-19T08:57:48.193Z,5.57
2022-12-19T09:02:51.689Z,5.58
2022-12-19T09:07:55.685Z,5.61
2022-12-19T09:12:58.725Z,5.66
2022-12-19T09:18:01.286Z,5.74
2022-12-19T09:23:05.545Z,5.77
2022-12-19T09:33:35.513Z,7.03
2022-12-19T09:38:44.206Z,6.89
2022-12-19T09:43:59.564Z,6.61
2022-12-19T09:49:12.962Z,6.39
2022-12-19T09:54:23.362Z,6.36
2022-12-19T09:59:33.194Z,6.27
2022-12-19T10:04:49.242Z,6.21
2022-12-19T10:11:59.380Z,6.24
2022-12-19T10:15:26.870Z,6.25
2022-12-19T10:20:31.291Z,6.34
2022-12-19T10:26:00.673Z,6.30
2022-12-19T10:31:20.705Z,6.38
2022-12-19T10:36:48.700Z,6.42
2022-12-19T10:41:53.931Z,6.44
2022-12-19T10:46:56.554Z,6.60
2022-12-19T10:52:01.104Z,6.67
2022-12-19T10:57:20.371Z,6.70
2022-12-19T11:02:34.767Z,6.71
2022-12-19T11:07:37.476Z,6.75
2022-12-19T11:19:17.683Z,6.74
2022-12-19T11:27:13.903Z,6.75
2022-12-19T11:29:39.997Z,6.71
2022-12-19T11:31:51.351Z,6.68
2022-12-19T11:34:50.687Z,6.56
2022-12-19T11:39:59.548Z,6.82
2022-12-19T11:45:12.674Z,6.87
2022-12-19T11:50:18.927Z,6.80
2022-12-19T11:55:25.583Z,6.80
2022-12-19T12:00:31.128Z,6.88
2022-12-19T12:05:56.456Z,6.98
2022-12-19T12:15:19.058Z,6.84
2022-12-19T12:31:10.767Z,7.05
2022-12-19T12:32:02.267Z,7.04
2022-12-19T12:32:03.522Z,7.08
2022-12-19T12:35:32.949Z,7.17
2022-12-19T12:39:03.401Z,7.24
2022-12-19T12:44:10.043Z,7.27
2022-12-19T12:49:32.933Z,7.32
2022-12-19T12:54:38.898Z,7.39
2022-12-19T12:59:46.388Z,7.49
2022-12-19T13:04:58.756Z,7.52
2022-12-19T13:10:19.339Z,7.56
2022-12-19T13:15:37.156Z,7.60
2022-12-19T13:20:45.081Z,7.71
2022-12-19T13:25:51.385Z,7.66
2022-12-19T13:31:22.847Z,7.73
2022-12-19T13:39:54.508Z,7.77
2022-12-19T13:42:46.068Z,7.78
2022-12-19T13:47:51.854Z,7.75
2022-12-19T13:52:55.142Z,7.42
2022-12-19T13:57:59.042Z,7.69
2022-12-19T14:03:02.993Z,7.66
2022-12-19T14:08:08.332Z,7.55
2022-12-19T14:13:58.131Z,7.58
2022-12-19T14:19:00.373Z,7.67
2022-12-19T14:24:10.480Z,7.61
2022-12-19T14:29:17.911Z,7.61
2022-12-19T14:35:05.055Z,7.76
2022-12-19T14:40:08.539Z,7.55
2022-12-19T14:52:08.673Z,7.68
2022-12-19T14:54:04.907Z,7.64
2022-12-19T14:57:01.971Z,7.66
2022-12-19T15:02:27.708Z,7.81
2022-12-19T15:07:35.604Z,7.81
2022-12-19T15:14:47.192Z,7.76
2022-12-19T15:18:39.926Z,7.81
2022-12-19T15:23:44.731Z,7.81
2022-12-19T15:28:49.991Z,7.84
2022-12-19T15:34:32.373Z,7.83
2022-12-19T15:39:17.638Z,7.84
2022-12-19T15:44:31.509Z,7.91
2022-12-19T15:49:35.879Z,8.26
2022-12-19T15:54:53.864Z,8.33
2022-12-19T15:59:58.158Z,8.19
2022-12-19T16:05:04.415Z,8.06
2022-12-19T16:10:10.549Z,8.03
2022-12-19T16:15:21.068Z,7.99
2022-12-19T16:20:27.615Z,7.95
2022-12-19T16:25:35.860Z,8.00
2022-12-19T16:30:40.396Z,8.00
2022-12-19T16:41:15.671Z,8.03
2022-12-19T16:46:21.619Z,8.09
2022-12-19T16:51:28.957Z,8.09
2022-12-19T16:56:35.301Z,8.07
2022-12-19T17:01:37.980Z,8.11
2022-12-19T17:06:42.264Z,7.87
2022-12-19T17:11:48.525Z,8.09
2022-12-19T17:16:55.143Z,8.16
2022-12-19T17:21:59.323Z,8.00
2022-12-19T17:27:01.999Z,8.19
2022-12-19T17:32:06.837Z,8.18
2022-12-19T17:37:17.354Z,8.13
2022-12-19T17:42:23.355Z,8.85
2022-12-19T17:47:27.391Z,8.73
2022-12-19T17:52:36.670Z,8.65
2022-12-19T17:57:39.837Z,8.69
2022-12-19T18:02:45.260Z,8.78
2022-12-19T18:07:50.657Z,8.59
2022-12-19T18:12:54.157Z,8.66
2022-12-19T18:18:00.510Z,8.52
2022-12-19T18:23:18.664Z,8.47
2022-12-19T18:28:23.140Z,8.52
2022-12-19T18:33:26.375Z,8.45
2022-12-19T18:38:30.334Z,8.51
2022-12-19T18:43:33.933Z,8.52
2022-12-19T18:48:38.047Z,8.43
2022-12-19T18:53:43.393Z,8.57
2022-12-19T18:58:47.165Z,8.58
2022-12-19T19:03:55.227Z,8.46
2022-12-19T19:09:00.360Z,8.45
2022-12-19T19:14:23.129Z,8.64
2022-12-19T19:19:26.024Z,8.71
2022-12-19T19:24:30.827Z,8.66
2022-12-19T19:29:34.210Z,8.65
2022-12-19T19:34:41.369Z,8.69
2022-12-19T19:39:48.284Z,8.72
2022-12-19T19:44:51.759Z,8.75
2022-12-19T19:49:56.131Z,8.78
2022-12-19T19:55:00.416Z,8.79
2022-12-19T20:00:04.000Z,8.82
2022-12-19T20:05:17.413Z,8.85
2022-12-19T20:10:21.358Z,8.85
2022-12-19T20:15:24.446Z,8.88
2022-12-19T20:20:28.450Z,8.93
2022-12-19T20:25:32.842Z,9.02
2022-12-19T20:30:37.709Z,9.07
2022-12-19T20:35:40.893Z,9.16
2022-12-19T20:40:46.923Z,9.14
2022-12-19T20:45:50.733Z,9.26
2022-12-19T20:50:56.697Z,9.31
2022-12-19T20:56:02.922Z,9.39
2022-12-19T21:01:08.989Z,9.28
2022-12-19T21:06:13.469Z,9.47
2022-12-19T21:11:17.387Z,9.51
2022-12-19T21:16:23.264Z,9.58
2022-12-19T21:21:28.490Z,9.61
2022-12-19T21:26:33.884Z,9.64
2022-12-19T21:31:36.555Z,9.69
2022-12-19T21:36:39.523Z,9.61
2022-12-19T21:41:43.582Z,9.72
2022-12-19T21:46:48.082Z,9.73
2022-12-19T21:51:50.695Z,9.68
2022-12-19T21:56:54.680Z,9.65
2022-12-19T22:01:57.764Z,9.73
2022-12-19T22:07:00.648Z,9.76
2022-12-19T22:12:04.848Z,9.75
2022-12-19T22:17:07.506Z,9.76
2022-12-19T22:22:10.491Z,9.77
2022-12-19T22:27:14.451Z,9.78
2022-12-19T22:32:17.626Z,9.76
2022-12-19T22:37:20.187Z,9.79
2022-12-19T22:42:24.097Z,9.77
2022-12-19T22:47:26.727Z,9.75
2022-12-19T22:52:29.302Z,9.56
2022-12-19T22:57:33.539Z,9.79
2022-12-19T23:02:39.548Z,9.86
2022-12-19T23:07:42.298Z,9.84
2022-12-19T23:12:46.739Z,9.87
2022-12-19T23:17:49.288Z,9.88
2022-12-19T23:22:51.867Z,9.87
2022-12-19T23:27:55.802Z,9.88
2022-12-19T23:32:58.333Z,9.93
2022-12-19T23:38:00.896Z,9.92
2022-12-19T23:43:05.034Z,9.96
2022-12-19T23:48:08.110Z,10.00
2022-12-19T23:53:10.852Z,10.01
2022-12-19T23:58:20.756Z,10.02
